createdAt,value
2022-11-04T00:02:08.009Z,100132.97
2022-11-04T00:04:35.321Z,100132.84
2022-11-04T00:07:22.569Z,100119.53
2022-11-04T00:09:49.867Z,100119.53
2022-11-04T00:12:26.011Z,100102.53
2022-11-04T00:14:54.219Z,100085.56
2022-11-04T00:17:24.404Z,100083.72
2022-11-04T00:20:14.195Z,100082.88
2022-11-04T00:23:01.105Z,100082.03
2022-11-04T00:25:46.730Z,100072.09
2022-11-04T00:28:37.602Z,100087.41
2022-11-04T00:31:25.595Z,100073.13
2022-11-04T00:33:54.593Z,100059.66
2022-11-04T00:36:24.723Z,100042.69
2022-11-04T00:38:52.457Z,100046.22
2022-11-04T00:41:29.984Z,100038.16
2022-11-04T00:44:02.786Z,100022.00
2022-11-04T00:46:32.113Z,100015.78
2022-11-04T00:48:59.825Z,100014.94
2022-11-04T00:51:27.248Z,100025.72
2022-11-04T00:53:54.796Z,100015.09
2022-11-04T00:56:22.091Z,100011.38
2022-11-04T00:58:50.329Z,100012.41
2022-11-04T01:01:19.021Z,100011.56
2022-11-04T01:03:51.161Z,100009.72
2022-11-04T01:06:19.770Z,100005.16
2022-11-04T01:08:47.665Z,100000.63
2022-11-04T01:11:15.966Z,99997.09
2022-11-04T01:13:43.379Z,99984.66
2022-11-04T01:16:11.565Z,99978.44
2022-11-04T01:18:41.778Z,99976.59
2022-11-04T01:21:12.887Z,99970.38
2022-11-04T01:23:41.698Z,99973.06
2022-11-04T01:26:13.468Z,99962.31
2022-11-04T01:28:41.298Z,99956.91
2022-11-04T01:31:10.957Z,99955.06
2022-11-04T01:33:39.153Z,99956.06
2022-11-04T01:36:07.784Z,99953.38
2022-11-04T01:38:35.319Z,99937.25
2022-11-04T01:41:03.442Z,99939.09
2022-11-04T01:43:49.441Z,99942.63
2022-11-04T01:46:50.921Z,99930.19
2022-11-04T01:49:37.961Z,99919.44
2022-11-04T01:52:15.227Z,99916.75
2022-11-04T01:54:44.504Z,99917.59
2022-11-04T01:57:18.186Z,99910.34
2022-11-04T01:59:46.019Z,99900.75
2022-11-04T02:02:13.469Z,99907.81
2022-11-04T02:04:42.275Z,99895.22
2022-11-04T02:07:10.968Z,99872.84
2022-11-04T02:09:40.169Z,99862.94
2022-11-04T02:12:25.880Z,99850.47
2022-11-04T02:14:54.852Z,99846.94
2022-11-04T02:17:49.040Z,99846.94
2022-11-04T02:20:35.045Z,99849.66
2022-11-04T02:23:38.844Z,99845.09
2022-11-04T02:26:11.906Z,99833.50
2022-11-04T02:28:39.016Z,99824.59
2022-11-04T02:31:18.300Z,99814.84
2022-11-04T02:34:05.665Z,99816.53
2022-11-04T02:36:54.578Z,99807.63
2022-11-04T02:39:47.357Z,99796.88
2022-11-04T02:42:34.822Z,99781.75
2022-11-04T02:45:08.033Z,99779.06
2022-11-04T02:47:38.315Z,99777.19
2022-11-04T02:50:12.064Z,99768.28
2022-11-04T02:52:51.384Z,99766.44
2022-11-04T02:55:42.327Z,99753.13
2022-11-04T02:58:15.426Z,99737.00
2022-11-04T03:00:43.636Z,99732.50
2022-11-04T03:03:35.756Z,99731.63
2022-11-04T03:06:04.917Z,99744.09
2022-11-04T03:08:37.219Z,99743.25
2022-11-04T03:11:25.173Z,99742.38
2022-11-04T03:14:18.170Z,99742.38
2022-11-04T03:16:53.020Z,99748.63
2022-11-04T03:19:47.840Z,99741.53
2022-11-04T03:22:18.990Z,99748.78
2022-11-04T03:24:48.205Z,99736.16
2022-11-04T03:27:31.752Z,99733.47
2022-11-04T03:30:06.924Z,99740.72
2022-11-04T03:32:56.976Z,99746.09
2022-11-04T03:35:25.922Z,99746.09
2022-11-04T03:37:53.326Z,99747.75
2022-11-04T03:40:22.207Z,99752.31
2022-11-04T03:42:58.625Z,99746.09
2022-11-04T03:45:26.769Z,99751.47
2022-11-04T03:47:55.637Z,99750.63
2022-11-04T03:50:35.794Z,99760.56
2022-11-04T03:53:03.051Z,99749.78
2022-11-04T03:55:53.395Z,99750.81
2022-11-04T03:58:39.144Z,99747.94
2022-11-04T04:01:26.735Z,99745.25
2022-11-04T04:04:04.575Z,99755.16
2022-11-04T04:06:35.783Z,99744.41
2022-11-04T04:09:18.457Z,99739.88
2022-11-04T04:11:58.082Z,99731.97
2022-11-04T04:14:40.525Z,99724.91
2022-11-04T04:17:07.673Z,99715.00
2022-11-04T04:19:36.411Z,99712.31
2022-11-04T04:22:14.539Z,99712.31
2022-11-04T04:25:05.346Z,99709.63
2022-11-04T04:27:34.325Z,99715.00
2022-11-04T04:30:11.007Z,99704.25
2022-11-04T04:33:06.973Z,99692.63
2022-11-04T04:35:43.354Z,99716.81
2022-11-04T04:38:35.476Z,99716.00
2022-11-04T04:41:45.008Z,99711.63
2022-11-04T04:44:45.476Z,99719.69
2022-11-04T04:47:20.111Z,99729.44
2022-11-04T04:49:55.892Z,99730.44
2022-11-04T04:52:25.822Z,99730.44
2022-11-04T04:54:53.026Z,99730.44
2022-11-04T04:57:20.328Z,99720.72
2022-11-04T04:59:47.626Z,99709.97
2022-11-04T05:02:15.164Z,99710.78
2022-11-04T05:04:42.556Z,99707.25
2022-11-04T05:07:10.098Z,99704.56
2022-11-04T05:09:37.406Z,99699.19
2022-11-04T05:12:04.722Z,99713.66
2022-11-04T05:14:31.986Z,99718.03
2022-11-04T05:16:59.259Z,99709.97
2022-11-04T05:19:26.573Z,99702.03
2022-11-04T05:21:53.915Z,99713.66
2022-11-04T05:24:21.147Z,99708.28
2022-11-04T05:26:48.459Z,99714.50
2022-11-04T05:31:47.840Z,99732.31
2022-11-04T05:34:15.097Z,99732.47
2022-11-04T05:36:42.432Z,99725.25
2022-11-04T05:39:13.158Z,99713.66
2022-11-04T05:41:40.537Z,99715.47
2022-11-04T05:44:09.642Z,99711.97
2022-11-04T05:46:36.899Z,99714.66
2022-11-04T05:49:04.904Z,99722.72
2022-11-04T05:51:32.221Z,99720.03
2022-11-04T05:54:00.466Z,99722.72
2022-11-04T05:56:27.756Z,99727.25
2022-11-04T05:58:55.411Z,99721.88
2022-11-04T06:01:27.301Z,99726.41
2022-11-04T06:03:55.081Z,99726.41
2022-11-04T06:06:23.700Z,99731.78
2022-11-04T06:08:51.554Z,99729.94
2022-11-04T06:11:20.320Z,99741.72
2022-11-04T06:13:48.100Z,99750.63
2022-11-04T06:16:15.497Z,99771.28
2022-11-04T06:18:43.211Z,99787.44
2022-11-04T06:21:13.191Z,99796.34
2022-11-04T06:23:44.661Z,99817.00
2022-11-04T06:26:13.486Z,99834.00
2022-11-04T06:28:40.844Z,99843.06
2022-11-04T06:31:10.108Z,99894.16
2022-11-04T06:33:37.735Z,99924.59
2022-11-04T06:36:07.648Z,99919.38
2022-11-04T06:38:37.773Z,99937.19
2022-11-04T06:41:07.060Z,99963.38
2022-11-04T06:43:34.339Z,99964.41
2022-11-04T06:46:02.883Z,99949.94
2022-11-04T06:48:31.259Z,99938.53
2022-11-04T06:50:59.340Z,99946.59
2022-11-04T06:53:27.848Z,99970.78
2022-11-04T06:56:03.923Z,99990.63
2022-11-04T06:58:31.215Z,99987.06
2022-11-04T07:00:58.729Z,99986.09
2022-11-04T07:03:26.062Z,99979.00
2022-11-04T07:05:53.253Z,99982.69
2022-11-04T07:08:20.739Z,99978.16
2022-11-04T07:10:48.030Z,99978.16
2022-11-04T07:13:16.769Z,99962.03
2022-11-04T07:15:44.065Z,99965.56
2022-11-04T07:18:11.539Z,99967.41
2022-11-04T07:20:40.110Z,99962.84
2022-11-04T07:23:07.542Z,99966.41
2022-11-04T07:25:36.373Z,99962.84
2022-11-04T07:28:03.722Z,99958.66
2022-11-04T07:30:31.042Z,99963.84
2022-11-04T07:32:58.748Z,99959.91
2022-11-04T07:35:26.006Z,99973.00
2022-11-04T07:37:55.187Z,99987.91
2022-11-04T07:40:22.472Z,99983.00
2022-11-04T07:42:49.695Z,99990.72
2022-11-04T07:45:18.587Z,99992.16
2022-11-04T07:47:45.879Z,99998.31
2022-11-04T07:50:13.603Z,100002.31
2022-11-04T07:52:40.873Z,100005.50
2022-11-04T07:55:08.922Z,100000.28
2022-11-04T07:57:36.563Z,100004.81
2022-11-04T08:00:06.659Z,100003.97
2022-11-04T08:02:39.634Z,100010.31
2022-11-04T08:05:07.684Z,100011.03
2022-11-04T08:07:34.941Z,100021.94
2022-11-04T08:10:02.402Z,100009.34
2022-11-04T08:12:29.702Z,100008.34
2022-11-04T08:14:56.944Z,99994.75
2022-11-04T08:17:24.144Z,99995.28
2022-11-04T08:19:52.561Z,99989.06
2022-11-04T08:22:19.902Z,99978.84
2022-11-04T08:24:49.988Z,99977.53
2022-11-04T08:27:17.774Z,99970.13
2022-11-04T08:29:45.039Z,99970.84
2022-11-04T08:32:12.321Z,99966.84
2022-11-04T08:34:40.132Z,99967.38
2022-11-04T08:37:07.400Z,99961.81
2022-11-04T08:39:34.698Z,99959.00
2022-11-04T08:42:01.976Z,99952.78
2022-11-04T08:44:29.299Z,99945.69
2022-11-04T08:46:56.515Z,99948.25
2022-11-04T08:49:23.760Z,99939.00
2022-11-04T08:51:56.724Z,99931.78
2022-11-04T08:54:24.529Z,99926.09
2022-11-04T08:56:52.391Z,99919.69
2022-11-04T08:59:19.935Z,99911.50
2022-11-04T09:01:47.311Z,99921.22
2022-11-04T09:04:14.564Z,99908.63
2022-11-04T09:06:44.913Z,99920.91
2022-11-04T09:09:14.903Z,99915.53
2022-11-04T09:11:43.153Z,99913.69
2022-11-04T09:14:11.231Z,99901.94
2022-11-04T09:16:40.600Z,99912.69
2022-11-04T09:19:08.380Z,99907.16
2022-11-04T09:21:36.121Z,99907.84
2022-11-04T09:24:03.664Z,99907.00
2022-11-04T09:26:31.402Z,99908.66
2022-11-04T09:28:59.410Z,99907.00
2022-11-04T09:31:29.498Z,99908.66
2022-11-04T09:33:57.001Z,99901.44
2022-11-04T09:36:24.764Z,99907.66
2022-11-04T09:38:52.832Z,99890.69
2022-11-04T09:42:01.400Z,99886.31
2022-11-04T09:44:28.619Z,99883.47
2022-11-04T09:47:00.529Z,99888.84
2022-11-04T09:49:33.894Z,99887.34
2022-11-04T09:52:05.233Z,99879.28
2022-11-04T09:54:47.515Z,99882.97
2022-11-04T09:57:19.811Z,99883.28
2022-11-04T09:59:48.314Z,99885.81
2022-11-04T10:02:56.838Z,99882.09
2022-11-04T10:05:39.184Z,99882.97
2022-11-04T10:08:24.843Z,99881.13
2022-11-04T10:11:12.958Z,99880.28
2022-11-04T10:13:57.877Z,99889.19
2022-11-04T10:16:46.765Z,99874.22
2022-11-04T10:19:33.480Z,99878.56
2022-11-04T10:22:12.750Z,99886.63
2022-11-04T10:24:46.980Z,99883.94
2022-11-04T10:27:21.724Z,99875.88
2022-11-04T10:29:56.959Z,99872.22
2022-11-04T10:32:53.976Z,99877.59
2022-11-04T10:35:36.320Z,99882.97
2022-11-04T10:38:21.347Z,99876.59
2022-11-04T10:40:51.291Z,99878.25
2022-11-04T10:43:28.948Z,99864.81
2022-11-04T10:46:40.352Z,99861.28
2022-11-04T10:50:00.141Z,99860.28
2022-11-04T10:52:33.664Z,99854.75
2022-11-04T10:55:01.477Z,99846.69
2022-11-04T10:57:30.987Z,99839.59
2022-11-04T11:00:00.956Z,99839.59
2022-11-04T11:02:37.518Z,99829.69
2022-11-04T11:05:16.076Z,99837.75
2022-11-04T11:07:48.993Z,99819.94
2022-11-04T11:10:32.598Z,99825.31
2022-11-04T11:13:07.419Z,99812.72
2022-11-04T11:15:38.200Z,99825.19
2022-11-04T11:18:08.421Z,99826.84
2022-11-04T11:20:38.003Z,99821.47
2022-11-04T11:23:09.632Z,99817.13
2022-11-04T11:25:45.368Z,99814.44
2022-11-04T11:28:22.672Z,99820.66
2022-11-04T11:30:55.551Z,99816.25
2022-11-04T11:33:31.545Z,99825.19
2022-11-04T11:36:12.245Z,99826.84
2022-11-04T11:38:53.425Z,99836.78
2022-11-04T11:41:29.687Z,99826.03
2022-11-04T11:44:01.978Z,99831.41
2022-11-04T11:46:31.929Z,99821.63
2022-11-04T11:49:02.323Z,99812.59
2022-11-04T11:51:33.599Z,99813.56
2022-11-04T11:54:26.072Z,99809.06
2022-11-04T11:57:13.462Z,99798.31
2022-11-04T12:03:06.797Z,99791.91
2022-11-04T12:06:18.262Z,99790.06
2022-11-04T12:09:24.003Z,99794.59
2022-11-04T12:12:11.197Z,99786.53
2022-11-04T12:14:59.689Z,99779.47
2022-11-04T12:17:45.638Z,99777.78
2022-11-04T12:20:25.892Z,99770.41
2022-11-04T12:23:08.575Z,99757.97
2022-11-04T12:26:12.409Z,99752.41
2022-11-04T12:28:39.683Z,99759.66
2022-11-04T12:31:30.820Z,99748.91
2022-11-04T12:34:36.696Z,99742.69
2022-11-04T12:37:41.758Z,99748.06
2022-11-04T12:40:27.323Z,99744.53
2022-11-04T12:42:57.359Z,99741.66
2022-11-04T12:45:53.158Z,99739.16
2022-11-04T12:48:44.837Z,99732.75
2022-11-04T12:51:24.485Z,99737.44
2022-11-04T12:54:30.333Z,99740.81
2022-11-04T12:57:15.376Z,99748.06
2022-11-04T13:00:06.465Z,99749.91
2022-11-04T13:02:51.859Z,99743.66
2022-11-04T13:05:38.144Z,99749.91
2022-11-04T13:08:14.175Z,99746.34
2022-11-04T13:11:24.321Z,99746.19
2022-11-04T13:14:21.292Z,99747.22
2022-11-04T13:16:54.313Z,99741.84
2022-11-04T13:19:26.097Z,99744.53
2022-11-04T13:21:55.083Z,99743.66
2022-11-04T13:24:31.901Z,99737.44
2022-11-04T13:27:04.575Z,99735.59
2022-11-04T13:29:34.674Z,99732.91
2022-11-04T13:32:09.039Z,99724.00
2022-11-04T13:35:05.329Z,99725.03
2022-11-04T13:37:43.156Z,99718.63
2022-11-04T13:40:22.711Z,99715.94
2022-11-04T13:43:21.330Z,99709.72
2022-11-04T13:45:52.560Z,99706.19
2022-11-04T13:48:22.977Z,99701.66
2022-11-04T13:51:07.288Z,99706.19
2022-11-04T13:53:55.525Z,99700.81
2022-11-04T13:56:34.320Z,99711.56
2022-11-04T13:59:18.759Z,99711.56
2022-11-04T14:01:46.745Z,99706.19
2022-11-04T14:04:14.146Z,99702.69
2022-11-04T14:06:52.736Z,99701.84
2022-11-04T14:09:43.238Z,99701.00
2022-11-04T14:12:10.403Z,99702.69
2022-11-04T14:14:39.471Z,99699.16
2022-11-04T14:17:35.080Z,99696.47
2022-11-04T14:20:06.204Z,99703.50
2022-11-04T14:22:43.717Z,99699.16
2022-11-04T14:25:26.144Z,99701.00
2022-11-04T14:28:00.160Z,99708.06
2022-11-04T14:30:37.711Z,99709.91
2022-11-04T14:33:18.517Z,99710.91
2022-11-04T14:35:45.897Z,99726.03
2022-11-04T14:38:26.828Z,99726.03
2022-11-04T14:41:21.047Z,99729.56
2022-11-04T14:43:49.637Z,99739.47
2022-11-04T14:46:23.779Z,99744.84
2022-11-04T14:48:54.645Z,99752.91
2022-11-04T14:51:29.204Z,99742.16
2022-11-04T14:54:12.371Z,99743.00
2022-11-04T14:56:41.566Z,99740.31
2022-11-04T14:59:21.609Z,99740.50
2022-11-04T15:01:52.356Z,99751.25
2022-11-04T15:04:26.776Z,99734.09
2022-11-04T15:06:55.944Z,99740.50
2022-11-04T15:09:29.245Z,99737.81
2022-11-04T15:12:28.346Z,99742.31
2022-11-04T15:14:56.249Z,99736.09
2022-11-04T15:17:26.891Z,99730.72
2022-11-04T15:19:57.759Z,99731.56
2022-11-04T15:22:25.373Z,99733.25
2022-11-04T15:24:53.152Z,99732.56
2022-11-04T15:27:28.144Z,99736.09
2022-11-04T15:30:00.824Z,99750.38
2022-11-04T15:32:28.884Z,99760.16
2022-11-04T15:34:57.506Z,99759.31
2022-11-04T15:37:26.660Z,99771.03
2022-11-04T15:39:57.733Z,99773.72
2022-11-04T15:42:43.943Z,99783.66
2022-11-04T15:45:31.730Z,99773.72
2022-11-04T15:48:26.751Z,99778.28
2022-11-04T15:51:18.898Z,99787.16
2022-11-04T15:54:02.625Z,99784.47
2022-11-04T15:56:44.385Z,99783.66
2022-11-04T15:59:18.681Z,99791.56
2022-11-04T16:01:48.521Z,99785.31
2022-11-04T16:04:17.852Z,99788.00
2022-11-04T16:06:47.798Z,99785.31
2022-11-04T16:09:28.489Z,99779.28
2022-11-04T16:12:18.105Z,99784.66
2022-11-04T16:14:51.309Z,99783.66
2022-11-04T16:17:20.209Z,99789.88
2022-11-04T16:19:51.968Z,99780.13
2022-11-04T16:22:24.761Z,99784.47
2022-11-04T16:24:54.228Z,99791.72
2022-11-04T16:27:23.307Z,99798.94
2022-11-04T16:30:01.456Z,99785.50
2022-11-04T16:32:39.547Z,99788.19
2022-11-04T16:35:17.880Z,99788.19
2022-11-04T16:37:48.948Z,99794.41
2022-11-04T16:40:17.428Z,99799.78
2022-11-04T16:42:46.016Z,99804.31
2022-11-04T16:45:27.177Z,99804.31
2022-11-04T16:47:55.158Z,99804.31
2022-11-04T16:50:24.670Z,99810.72
2022-11-04T16:52:52.673Z,99822.28
2022-11-04T16:55:22.764Z,99817.75
2022-11-04T16:58:00.242Z,99823.31
2022-11-04T17:00:29.150Z,99824.16
2022-11-04T17:02:58.373Z,99829.53
2022-11-04T17:05:25.631Z,99840.28
2022-11-04T17:07:56.589Z,99833.22
2022-11-04T17:10:28.586Z,99835.75
2022-11-04T17:12:55.970Z,99834.06
2022-11-04T17:15:23.224Z,99827.84
2022-11-04T17:17:50.599Z,99833.22
2022-11-04T17:20:18.713Z,99830.53
2022-11-04T17:22:47.315Z,99829.84
2022-11-04T17:25:17.886Z,99838.59
2022-11-04T17:27:45.321Z,99844.13
2022-11-04T17:30:14.287Z,99854.72
2022-11-04T17:32:42.160Z,99860.94
2022-11-04T17:35:10.637Z,99855.88
2022-11-04T17:37:38.265Z,99858.41
2022-11-04T17:40:06.503Z,99859.41
2022-11-04T17:42:52.368Z,99862.09
2022-11-04T17:45:19.719Z,99857.56
2022-11-04T17:47:46.968Z,99855.03
2022-11-04T17:50:14.229Z,99858.56
2022-11-04T17:52:42.410Z,99858.56
2022-11-04T17:55:15.370Z,99866.63
2022-11-04T17:57:44.080Z,99863.09
2022-11-04T18:00:14.353Z,99865.78
2022-11-04T18:02:42.882Z,99868.47
2022-11-04T18:05:10.208Z,99865.78
2022-11-04T18:07:37.445Z,99865.94
2022-11-04T18:10:05.427Z,99869.50
2022-11-04T18:12:38.574Z,99878.41
2022-11-04T18:15:06.820Z,99871.16
2022-11-04T18:17:40.384Z,99864.97
2022-11-04T18:20:13.992Z,99864.13
2022-11-04T18:22:42.547Z,99864.13
2022-11-04T18:25:11.011Z,99857.88
2022-11-04T18:27:38.246Z,99857.88
2022-11-04T18:30:06.382Z,99869.50
2022-11-04T18:32:33.641Z,99868.63
2022-11-04T18:35:01.041Z,99875.84
2022-11-04T18:37:28.956Z,99886.59
2022-11-04T18:39:56.264Z,99884.75
2022-11-04T18:42:23.556Z,99889.28
2022-11-04T18:44:50.926Z,99891.00
2022-11-04T18:47:18.279Z,99880.25
2022-11-04T18:49:47.103Z,99891.00
2022-11-04T18:52:14.375Z,99880.25
2022-11-04T18:54:44.884Z,99879.38
2022-11-04T18:57:12.260Z,99882.94
2022-11-04T18:59:39.757Z,99882.94
2022-11-04T19:02:07.982Z,99883.78
2022-11-04T19:04:35.262Z,99881.09
2022-11-04T19:07:04.450Z,99879.25
2022-11-04T19:09:46.237Z,99883.78
2022-11-04T19:12:33.544Z,99883.78
2022-11-04T19:15:00.946Z,99882.94
2022-11-04T19:17:28.173Z,99874.88
2022-11-04T19:19:55.540Z,99869.50
2022-11-04T19:22:22.801Z,99867.66
2022-11-04T19:24:50.012Z,99864.97
2022-11-04T19:27:19.530Z,99864.13
2022-11-04T19:29:46.768Z,99858.75
2022-11-04T19:32:14.654Z,99863.25
2022-11-04T19:34:43.057Z,99873.03
2022-11-04T19:37:11.435Z,99879.38
2022-11-04T19:39:39.474Z,99883.78
2022-11-04T19:42:29.360Z,99879.38
2022-11-04T19:44:56.925Z,99887.44
2022-11-04T19:47:24.204Z,99894.66
2022-11-04T19:49:53.228Z,99898.19
2022-11-04T19:52:21.189Z,99896.38
2022-11-04T19:54:48.667Z,99901.75
2022-11-04T19:57:16.647Z,99905.41
2022-11-04T19:59:44.018Z,99903.44
2022-11-04T20:02:15.427Z,99908.81
2022-11-04T20:04:50.289Z,99915.84
2022-11-04T20:07:19.642Z,99914.19
2022-11-04T20:09:47.045Z,99913.16
2022-11-04T20:15:14.803Z,99919.56
2022-11-04T20:20:23.352Z,99921.22
2022-11-04T20:22:50.764Z,99924.94
2022-11-04T20:25:18.309Z,99938.38
2022-11-04T20:27:46.377Z,99942.75
2022-11-04T20:30:13.895Z,99941.06
2022-11-04T20:32:41.463Z,99941.06
2022-11-04T20:35:09.241Z,99941.06
2022-11-04T20:37:39.942Z,99937.34
2022-11-04T20:40:10.960Z,99935.69
2022-11-04T20:42:38.396Z,99945.44
2022-11-04T20:45:09.133Z,99949.97
2022-11-04T20:47:37.321Z,99951.81
2022-11-04T20:50:07.607Z,99954.50
2022-11-04T20:52:38.098Z,99969.63
2022-11-04T20:55:09.050Z,99985.75
2022-11-04T20:57:39.894Z,99999.19
2022-11-04T21:00:09.429Z,100010.09
2022-11-04T21:02:36.955Z,100020.69
2022-11-04T21:05:11.067Z,100017.00
2022-11-04T21:07:41.115Z,100004.75
2022-11-04T21:10:09.012Z,100004.56
2022-11-04T21:12:37.377Z,100009.09
2022-11-04T21:15:25.090Z,100020.69
2022-11-04T21:17:52.737Z,100029.78
2022-11-04T21:20:20.072Z,100026.91
2022-11-04T21:22:47.760Z,100026.78
2022-11-04T21:25:15.364Z,100027.06
2022-11-04T21:27:49.987Z,100022.53
2022-11-04T21:30:17.621Z,100027.75
2022-11-04T21:32:44.962Z,100025.22
2022-11-04T21:35:12.310Z,100028.75
2022-11-04T21:37:39.615Z,100024.22
2022-11-04T21:40:07.393Z,100039.50
2022-11-04T21:42:34.624Z,100038.66
2022-11-04T21:45:01.915Z,100031.63
2022-11-04T21:47:29.473Z,100033.28
2022-11-04T21:49:56.692Z,100027.91
2022-11-04T21:52:24.044Z,100035.16
2022-11-04T21:54:51.338Z,100044.03
2022-11-04T21:57:18.680Z,100045.91
2022-11-04T21:59:45.946Z,100044.03
2022-11-04T22:02:13.540Z,100045.06
2022-11-04T22:04:40.865Z,100047.75
2022-11-04T22:07:08.381Z,100048.59
2022-11-04T22:09:35.719Z,100059.34
2022-11-04T22:12:05.960Z,100061.19
2022-11-04T22:14:33.339Z,100067.41
2022-11-04T22:17:00.671Z,100064.72
2022-11-04T22:19:27.945Z,100064.72
2022-11-04T22:21:55.299Z,100068.41
2022-11-04T22:24:22.652Z,100059.47
2022-11-04T22:26:50.349Z,100062.16
2022-11-04T22:29:17.681Z,100072.91
2022-11-04T22:31:45.018Z,100076.47
2022-11-04T22:34:12.423Z,100088.06
2022-11-04T22:36:39.933Z,100089.91
2022-11-04T22:39:11.942Z,100099.78
2022-11-04T22:41:41.223Z,100112.41
2022-11-04T22:44:09.391Z,100109.72
2022-11-04T22:46:36.856Z,100108.72
2022-11-04T22:49:04.129Z,100105.16
2022-11-04T22:51:32.454Z,100107.84
2022-11-04T22:54:06.520Z,100114.25
2022-11-04T22:56:35.296Z,100120.47
2022-11-04T22:59:02.881Z,100117.78
2022-11-04T23:01:31.836Z,100117.78
2022-11-04T23:03:59.711Z,100129.38
2022-11-04T23:06:27.036Z,100133.91
2022-11-04T23:08:59.766Z,100135.75
2022-11-04T23:11:47.537Z,100132.06
2022-11-04T23:14:55.600Z,100117.78
2022-11-04T23:17:42.293Z,100125.00
2022-11-04T23:20:12.941Z,100130.38
2022-11-04T23:22:59.207Z,100125.84
2022-11-04T23:25:27.039Z,100127.69
2022-11-04T23:28:14.225Z,100115.91
2022-11-04T23:30:46.585Z,100119.47
2022-11-04T23:33:15.838Z,100121.31
2022-11-04T23:36:06.292Z,100128.53
2022-11-04T23:38:35.552Z,100121.47
2022-11-04T23:41:25.531Z,100121.47
2022-11-04T23:43:53.499Z,100124.16
2022-11-04T23:46:43.026Z,100129.69
2022-11-04T23:49:14.805Z,100131.38
2022-11-04T23:52:00.246Z,100141.13
2022-11-04T23:54:46.102Z,100145.66
2022-11-04T23:57:36.408Z,100143.81
